createdAt,value
2019-02-06T00:02:07.256Z,23.20
2019-02-06T00:07:03.054Z,22.93
2019-02-06T00:11:58.882Z,22.50
2019-02-06T00:16:54.669Z,23.97
2019-02-06T00:21:50.587Z,23.87
2019-02-06T00:26:46.305Z,23.77
2019-02-06T00:31:42.290Z,24.73
2019-02-06T00:36:37.981Z,22.87
2019-02-06T00:41:33.841Z,23.23
2019-02-06T00:46:29.984Z,23.27
2019-02-06T00:51:25.957Z,24.17
2019-02-06T00:56:21.662Z,22.80
2019-02-06T01:01:17.923Z,23.27
2019-02-06T01:06:13.725Z,23.93
2019-02-06T01:11:09.843Z,22.47
2019-02-06T01:16:05.569Z,22.07
2019-02-06T01:21:01.639Z,21.77
2019-02-06T01:25:57.439Z,22.10
2019-02-06T01:30:55.080Z,21.80
2019-02-06T01:35:50.801Z,20.60
2019-02-06T01:40:46.760Z,19.53
2019-02-06T01:45:42.499Z,19.50
2019-02-06T01:50:38.208Z,20.07
2019-02-06T01:55:34.167Z,19.70
2019-02-06T02:00:30.075Z,19.43
2019-02-06T02:05:26.365Z,19.00
2019-02-06T02:10:22.147Z,16.97
2019-02-06T02:15:18.273Z,17.00
2019-02-06T02:20:15.187Z,17.03
2019-02-06T02:25:11.071Z,15.80
2019-02-06T02:30:08.966Z,16.73
2019-02-06T02:35:05.588Z,16.87
2019-02-06T02:40:01.492Z,13.90
2019-02-06T02:44:57.331Z,14.27
2019-02-06T02:49:53.054Z,15.33
2019-02-06T02:54:49.164Z,15.57
2019-02-06T02:59:44.957Z,14.90
2019-02-06T03:04:40.939Z,15.53
2019-02-06T03:09:36.620Z,15.30
2019-02-06T03:14:32.378Z,15.20
2019-02-06T03:19:28.135Z,15.63
2019-02-06T03:24:23.844Z,15.60
2019-02-06T03:29:19.841Z,16.57
2019-02-06T03:34:15.564Z,16.33
2019-02-06T03:39:11.334Z,16.83
2019-02-06T03:44:07.105Z,14.20
2019-02-06T03:49:02.923Z,15.27
2019-02-06T03:53:58.736Z,14.67
2019-02-06T03:58:54.448Z,15.30
2019-02-06T04:03:50.554Z,15.23
2019-02-06T04:08:46.355Z,17.73
2019-02-06T04:13:42.090Z,17.57
2019-02-06T04:18:37.913Z,16.57
2019-02-06T04:23:33.720Z,17.43
2019-02-06T04:28:29.449Z,14.80
2019-02-06T04:33:25.153Z,15.97
2019-02-06T04:38:21.492Z,15.87
2019-02-06T04:43:17.470Z,14.67
2019-02-06T04:48:13.467Z,15.87
2019-02-06T04:53:09.302Z,14.83
2019-02-06T04:58:05.077Z,14.97
2019-02-06T05:03:00.889Z,15.60
2019-02-06T05:07:56.562Z,14.60
2019-02-06T05:12:52.695Z,14.90
2019-02-06T05:17:48.594Z,13.90
2019-02-06T05:22:44.449Z,13.90
2019-02-06T05:27:40.196Z,14.50
2019-02-06T05:32:35.907Z,15.20
2019-02-06T05:37:32.526Z,15.27
2019-02-06T05:42:28.318Z,16.97
2019-02-06T05:47:24.161Z,16.47
2019-02-06T05:52:19.926Z,15.63
2019-02-06T05:57:15.620Z,16.60
2019-02-06T06:02:11.431Z,15.87
2019-02-06T06:07:07.486Z,15.97
2019-02-06T06:12:03.250Z,16.47
2019-02-06T06:16:59.003Z,16.80
2019-02-06T06:21:54.916Z,14.63
2019-02-06T06:26:50.698Z,16.67
2019-02-06T06:31:46.419Z,15.90
2019-02-06T06:36:42.371Z,18.23
2019-02-06T06:41:38.181Z,17.57
2019-02-06T06:46:33.912Z,15.90
2019-02-06T06:51:29.919Z,16.60
2019-02-06T06:56:25.617Z,16.57
2019-02-06T07:01:21.527Z,17.07
2019-02-06T07:06:17.340Z,17.90
2019-02-06T07:11:13.155Z,17.93
2019-02-06T07:16:08.963Z,16.60
2019-02-06T07:21:04.766Z,17.03
2019-02-06T07:26:00.485Z,18.60
2019-02-06T07:30:56.174Z,18.73
2019-02-06T07:35:52.091Z,18.10
2019-02-06T07:40:47.818Z,17.20
2019-02-06T07:45:43.533Z,18.20
2019-02-06T07:50:39.357Z,17.50
2019-02-06T07:55:35.042Z,16.27
2019-02-06T08:00:30.771Z,18.43
2019-02-06T08:05:26.553Z,18.57
2019-02-06T08:10:26.673Z,18.03
2019-02-06T08:15:22.483Z,20.20
2019-02-06T08:20:21.671Z,18.33
2019-02-06T08:25:18.685Z,19.23
2019-02-06T08:30:19.011Z,20.30
2019-02-06T08:35:14.836Z,18.33
2019-02-06T08:40:12.409Z,18.03
2019-02-06T08:45:12.579Z,17.00
2019-02-06T08:50:10.301Z,17.97
2019-02-06T08:55:07.366Z,18.20
2019-02-06T09:00:04.781Z,17.23
2019-02-06T09:05:00.484Z,17.67
2019-02-06T09:09:56.227Z,17.87
2019-02-06T09:14:52.510Z,18.77
2019-02-06T09:19:48.397Z,19.70
2019-02-06T09:24:44.111Z,19.13
2019-02-06T09:29:39.823Z,19.53
2019-02-06T09:34:35.488Z,20.50
2019-02-06T09:39:31.181Z,19.87
2019-02-06T09:44:26.935Z,20.30
2019-02-06T09:49:22.987Z,19.63
2019-02-06T09:54:18.698Z,18.33
2019-02-06T09:59:14.413Z,20.10
2019-02-06T10:04:10.219Z,19.43
2019-02-06T10:09:06.228Z,20.20
2019-02-06T10:14:02.151Z,20.87
2019-02-06T10:18:57.841Z,20.90
2019-02-06T10:23:54.073Z,22.37
2019-02-06T10:28:49.793Z,22.00
2019-02-06T10:33:45.561Z,23.70
2019-02-06T10:38:41.394Z,24.53
2019-02-06T10:43:37.096Z,24.17
2019-02-06T10:48:32.809Z,22.70
2019-02-06T10:53:29.581Z,22.67
2019-02-06T10:58:25.719Z,24.70
2019-02-06T11:03:21.446Z,23.37
2019-02-06T11:08:17.609Z,22.67
2019-02-06T11:13:13.697Z,22.50
2019-02-06T11:18:09.489Z,22.57
2019-02-06T11:23:05.606Z,22.50
2019-02-06T11:28:01.322Z,25.57
2019-02-06T11:32:57.286Z,25.30
2019-02-06T11:37:53.091Z,27.53
2019-02-06T11:42:48.796Z,26.53
2019-02-06T11:47:44.809Z,26.17
2019-02-06T11:52:40.623Z,28.93
2019-02-06T11:57:36.317Z,28.27
2019-02-06T12:02:37.386Z,28.13
2019-02-06T12:07:29.833Z,29.03
2019-02-06T12:12:25.535Z,29.43
2019-02-06T12:17:21.251Z,29.03
2019-02-06T12:22:17.059Z,28.47
2019-02-06T12:27:12.757Z,27.50
2019-02-06T12:32:08.462Z,28.43
2019-02-06T12:37:04.358Z,27.43
2019-02-06T12:42:00.093Z,28.47
2019-02-06T12:46:55.909Z,28.60
2019-02-06T12:51:52.491Z,27.43
2019-02-06T12:56:48.339Z,27.07
2019-02-06T13:01:44.910Z,26.37
2019-02-06T13:06:40.621Z,25.40
2019-02-06T13:11:36.473Z,25.60
2019-02-06T13:16:32.251Z,22.73
2019-02-06T13:21:28.285Z,22.87
2019-02-06T13:26:23.996Z,22.83
2019-02-06T13:31:19.816Z,22.33
2019-02-06T13:36:15.738Z,18.53
2019-02-06T13:41:11.801Z,19.00
2019-02-06T13:46:07.806Z,18.27
2019-02-06T13:51:15.638Z,17.60
2019-02-06T13:56:01.667Z,16.93
2019-02-06T14:00:57.575Z,18.30
2019-02-06T14:05:53.359Z,16.03
2019-02-06T14:10:58.325Z,17.13
2019-02-06T14:15:47.129Z,15.77
2019-02-06T14:20:43.423Z,16.63
2019-02-06T14:25:41.121Z,15.50
2019-02-06T14:30:47.573Z,16.63
2019-02-06T14:35:45.199Z,17.17
2019-02-06T14:40:51.892Z,17.40
2019-02-06T14:45:55.686Z,17.47
2019-02-06T14:51:09.740Z,17.43
2019-02-06T14:56:24.046Z,18.73
2019-02-06T15:01:21.957Z,18.73
2019-02-06T15:06:19.569Z,18.43
2019-02-06T15:11:23.333Z,16.73
2019-02-06T15:16:24.042Z,17.03
2019-02-06T15:21:33.627Z,16.70
2019-02-06T15:26:31.591Z,16.83
2019-02-06T15:31:29.210Z,17.87
2019-02-06T15:36:26.806Z,16.93
2019-02-06T15:41:36.559Z,15.63
2019-02-06T15:46:34.175Z,17.03
2019-02-06T15:51:46.814Z,16.80
2019-02-06T15:56:47.188Z,18.27
2019-02-06T16:01:45.154Z,18.63
2019-02-06T16:06:43.239Z,18.63
2019-02-06T16:11:43.624Z,17.67
2019-02-06T16:16:56.829Z,18.67
2019-02-06T16:21:54.539Z,18.30
2019-02-06T16:27:08.681Z,18.30
2019-02-06T16:32:06.411Z,18.53
2019-02-06T16:37:04.011Z,17.47
2019-02-06T16:42:10.641Z,17.93
2019-02-06T16:47:08.281Z,18.73
2019-02-06T16:52:12.228Z,18.73
2019-02-06T16:57:12.917Z,18.03
2019-02-06T17:02:16.340Z,19.27
2019-02-06T17:07:13.974Z,19.10
2019-02-06T17:12:14.636Z,19.30
2019-02-06T17:17:12.523Z,20.10
2019-02-06T17:22:25.015Z,20.20
2019-02-06T17:27:22.629Z,18.00
2019-02-06T17:32:23.305Z,18.47
2019-02-06T17:37:37.840Z,20.07
2019-02-06T17:42:38.401Z,18.97
2019-02-06T17:47:53.312Z,17.83
2019-02-06T17:53:06.195Z,18.93
2019-02-06T17:58:02.128Z,17.33
2019-02-06T18:02:59.611Z,17.83
2019-02-06T18:07:55.579Z,18.77
2019-02-06T18:12:51.533Z,18.90
2019-02-06T18:17:47.201Z,17.23
2019-02-06T18:22:42.923Z,18.47
2019-02-06T18:27:38.724Z,18.40
2019-02-06T18:32:34.532Z,19.37
2019-02-06T18:37:30.465Z,16.77
2019-02-06T18:42:36.673Z,17.33
2019-02-06T18:47:24.338Z,19.30
2019-02-06T18:52:20.889Z,18.90
2019-02-06T18:57:16.733Z,18.63
2019-02-06T19:02:12.836Z,18.60
2019-02-06T19:07:08.717Z,17.40
2019-02-06T19:12:04.835Z,17.03
2019-02-06T19:17:00.786Z,16.87
2019-02-06T19:21:56.622Z,16.50
2019-02-06T19:26:52.435Z,16.93
2019-02-06T19:31:48.262Z,15.57
2019-02-06T19:36:44.082Z,16.93
2019-02-06T19:41:39.883Z,27.77
2019-02-06T19:46:35.804Z,15.90
2019-02-06T19:51:31.971Z,17.00
2019-02-06T19:56:27.778Z,18.00
2019-02-06T20:01:23.611Z,20.07
2019-02-06T20:06:28.583Z,18.93
2019-02-06T20:11:24.998Z,16.30
2019-02-06T20:16:21.000Z,16.37
2019-02-06T20:21:16.852Z,15.30
2019-02-06T20:26:12.855Z,16.63
2019-02-06T20:31:09.090Z,14.87
2019-02-06T20:36:04.889Z,14.57
2019-02-06T20:41:00.773Z,15.17
2019-02-06T20:45:56.594Z,14.80
2019-02-06T20:50:52.520Z,14.90
2019-02-06T20:55:48.401Z,16.83
2019-02-06T21:00:44.195Z,15.63
2019-02-06T21:05:40.101Z,16.33
2019-02-06T21:10:35.990Z,15.10
2019-02-06T21:15:32.887Z,15.07
2019-02-06T21:20:29.027Z,16.13
2019-02-06T21:25:25.660Z,15.40
2019-02-06T21:30:22.468Z,16.30
2019-02-06T21:35:18.511Z,15.70
2019-02-06T21:40:20.349Z,16.60
2019-02-06T21:45:16.233Z,16.80
2019-02-06T21:50:13.997Z,14.77
2019-02-06T21:55:11.563Z,14.93
2019-02-06T22:00:12.491Z,16.03
2019-02-06T22:05:08.423Z,15.37
2019-02-06T22:10:06.057Z,15.70
2019-02-06T22:15:03.377Z,16.53
2019-02-06T22:19:59.378Z,15.73
2019-02-06T22:24:55.195Z,14.87
2019-02-06T22:29:51.177Z,16.37
2019-02-06T22:34:46.887Z,15.50
2019-02-06T22:39:42.743Z,14.63
2019-02-06T22:44:38.495Z,15.60
2019-02-06T22:49:34.342Z,13.60
2019-02-06T22:54:30.419Z,15.20
2019-02-06T22:59:26.092Z,14.57
2019-02-06T23:04:21.998Z,15.97
2019-02-06T23:09:17.808Z,15.53
2019-02-06T23:14:17.618Z,15.17
2019-02-06T23:19:11.211Z,15.70
2019-02-06T23:24:07.021Z,15.47
2019-02-06T23:29:03.462Z,14.73
2019-02-06T23:33:59.157Z,16.03
2019-02-06T23:38:54.876Z,15.10
2019-02-06T23:43:50.578Z,15.67
2019-02-06T23:48:46.315Z,14.50
2019-02-06T23:53:42.033Z,13.70
2019-02-06T23:58:37.837Z,14.70
